createdAt,value
2018-11-26T00:00:35.703Z,6.00
2018-11-26T00:03:08.018Z,6.00
2018-11-26T00:05:36.858Z,6.00
2018-11-26T00:08:05.212Z,6.00
2018-11-26T00:10:44.864Z,6.00
2018-11-26T00:13:13.049Z,5.90
2018-11-26T00:15:41.182Z,6.00
2018-11-26T00:18:09.417Z,6.00
2018-11-26T00:20:37.637Z,6.00
2018-11-26T00:23:06.594Z,6.10
2018-11-26T00:25:34.833Z,6.00
2018-11-26T00:28:03.045Z,6.00
2018-11-26T00:30:31.373Z,5.90
2018-11-26T00:32:59.652Z,5.90
2018-11-26T00:35:27.853Z,6.00
2018-11-26T00:37:56.067Z,6.00
2018-11-26T00:40:24.289Z,5.90
2018-11-26T00:42:52.493Z,5.90
2018-11-26T00:45:20.712Z,5.90
2018-11-26T00:47:48.862Z,6.00
2018-11-26T00:50:17.066Z,5.90
2018-11-26T00:52:45.233Z,5.90
2018-11-26T00:55:13.387Z,5.90
2018-11-26T00:57:41.617Z,5.90
2018-11-26T01:00:11.233Z,5.90
2018-11-26T01:02:39.410Z,5.90
2018-11-26T01:05:07.905Z,5.90
2018-11-26T01:07:36.080Z,5.90
2018-11-26T01:10:04.257Z,5.90
2018-11-26T01:12:32.407Z,5.80
2018-11-26T01:15:00.568Z,5.80
2018-11-26T01:17:28.722Z,5.80
2018-11-26T01:19:56.999Z,5.90
2018-11-26T01:22:25.145Z,5.90
2018-11-26T01:24:53.302Z,5.90
2018-11-26T01:27:21.557Z,5.90
2018-11-26T01:29:49.757Z,5.80
2018-11-26T01:32:17.905Z,5.80
2018-11-26T01:34:46.119Z,5.70
2018-11-26T01:37:14.315Z,5.80
2018-11-26T01:39:43.241Z,5.80
2018-11-26T01:42:11.412Z,5.80
2018-11-26T01:44:39.635Z,5.80
2018-11-26T01:47:07.777Z,5.80
2018-11-26T01:49:35.940Z,5.80
2018-11-26T01:52:04.089Z,5.80
2018-11-26T01:54:32.220Z,5.70
2018-11-26T01:57:00.383Z,5.70
2018-11-26T01:59:28.554Z,5.80
2018-11-26T02:01:56.708Z,5.80
2018-11-26T02:04:24.878Z,5.80
2018-11-26T02:06:53.050Z,5.80
2018-11-26T02:09:22.251Z,5.80
2018-11-26T02:11:50.428Z,5.80
2018-11-26T02:14:18.571Z,5.80
2018-11-26T02:16:46.741Z,5.80
2018-11-26T02:19:14.910Z,5.80
2018-11-26T02:21:43.053Z,5.80
2018-11-26T02:24:11.233Z,5.80
2018-11-26T02:26:39.462Z,5.80
2018-11-26T02:29:07.670Z,5.80
2018-11-26T02:31:35.886Z,5.70
2018-11-26T02:34:04.045Z,5.70
2018-11-26T02:36:32.174Z,5.70
2018-11-26T02:39:00.431Z,5.70
2018-11-26T02:41:28.641Z,5.70
2018-11-26T02:43:56.796Z,5.70
2018-11-26T02:46:24.975Z,5.60
2018-11-26T02:48:53.172Z,5.70
2018-11-26T02:51:21.329Z,5.70
2018-11-26T02:53:49.477Z,5.70
2018-11-26T02:56:17.670Z,5.70
2018-11-26T02:58:45.864Z,5.70
2018-11-26T03:01:14.077Z,5.70
2018-11-26T03:03:42.317Z,5.70
2018-11-26T03:06:10.464Z,5.70
2018-11-26T03:08:38.616Z,5.70
2018-11-26T03:11:06.784Z,5.70
2018-11-26T03:13:34.946Z,5.70
2018-11-26T03:16:03.113Z,5.70
2018-11-26T03:18:31.260Z,5.70
2018-11-26T03:20:59.482Z,5.70
2018-11-26T03:23:27.665Z,5.70
2018-11-26T03:25:55.838Z,5.70
2018-11-26T03:28:24.013Z,5.60
2018-11-26T03:30:52.160Z,5.70
2018-11-26T03:33:20.303Z,5.70
2018-11-26T03:35:48.456Z,5.70
2018-11-26T03:38:21.876Z,5.70
2018-11-26T03:40:50.020Z,5.70
2018-11-26T03:43:18.165Z,5.70
2018-11-26T03:45:46.309Z,5.70
2018-11-26T03:48:14.503Z,5.70
2018-11-26T03:50:42.652Z,5.70
2018-11-26T03:53:10.835Z,5.60
2018-11-26T03:55:38.983Z,5.70
2018-11-26T03:58:07.125Z,5.70
2018-11-26T04:00:35.669Z,5.70
2018-11-26T04:03:03.796Z,5.60
2018-11-26T04:05:31.920Z,5.60
2018-11-26T04:08:00.026Z,5.60
2018-11-26T04:10:28.159Z,5.60
2018-11-26T04:12:56.292Z,5.50
2018-11-26T04:15:24.562Z,5.60
2018-11-26T04:17:52.722Z,5.50
2018-11-26T04:20:20.844Z,5.40
2018-11-26T04:22:48.988Z,5.50
2018-11-26T04:25:17.137Z,5.50
2018-11-26T04:27:45.258Z,5.40
2018-11-26T04:30:13.408Z,5.40
2018-11-26T04:32:41.529Z,5.40
2018-11-26T04:35:10.024Z,5.40
2018-11-26T04:37:38.184Z,5.40
2018-11-26T04:40:08.424Z,5.40
2018-11-26T04:42:36.555Z,5.40
2018-11-26T04:45:05.137Z,5.40
2018-11-26T04:47:33.328Z,5.30
2018-11-26T04:50:01.425Z,5.30
2018-11-26T04:52:30.704Z,5.30
2018-11-26T04:54:59.000Z,5.30
2018-11-26T04:57:27.186Z,5.10
2018-11-26T04:59:55.365Z,5.10
2018-11-26T05:02:23.498Z,5.10
2018-11-26T05:04:51.590Z,5.10
2018-11-26T05:07:19.736Z,5.10
2018-11-26T05:09:47.957Z,5.10
2018-11-26T05:12:16.088Z,5.10
2018-11-26T05:14:44.232Z,5.10
2018-11-26T05:17:12.345Z,5.10
2018-11-26T05:19:40.449Z,5.10
2018-11-26T05:22:08.591Z,5.00
2018-11-26T05:24:36.689Z,5.00
2018-11-26T05:27:04.909Z,5.00
2018-11-26T05:29:33.040Z,4.90
2018-11-26T05:32:01.145Z,4.90
2018-11-26T05:34:29.238Z,5.00
2018-11-26T05:36:57.389Z,5.00
2018-11-26T05:39:25.514Z,4.90
2018-11-26T05:41:53.657Z,4.90
2018-11-26T05:44:21.847Z,4.90
2018-11-26T05:46:49.935Z,4.90
2018-11-26T05:49:18.056Z,4.90
2018-11-26T05:51:46.200Z,4.90
2018-11-26T05:54:14.404Z,4.90
2018-11-26T05:56:42.564Z,4.90
2018-11-26T05:59:10.737Z,4.90
2018-11-26T06:01:38.872Z,4.80
2018-11-26T06:04:07.012Z,4.90
2018-11-26T06:06:35.166Z,4.90
2018-11-26T06:09:04.089Z,4.80
2018-11-26T06:11:32.202Z,4.80
2018-11-26T06:14:00.367Z,4.80
2018-11-26T06:16:28.548Z,4.80
2018-11-26T06:18:56.677Z,4.80
2018-11-26T06:21:24.824Z,4.80
2018-11-26T06:23:52.960Z,4.80
2018-11-26T06:26:21.212Z,4.80
2018-11-26T06:28:49.332Z,4.80
2018-11-26T06:31:17.465Z,4.80
2018-11-26T06:33:45.625Z,4.80
2018-11-26T06:36:13.913Z,4.90
2018-11-26T06:41:25.100Z,4.80
2018-11-26T06:43:53.259Z,4.80
2018-11-26T06:46:21.434Z,4.80
2018-11-26T06:48:49.645Z,4.90
2018-11-26T06:51:17.796Z,4.70
2018-11-26T06:53:45.957Z,4.80
2018-11-26T06:56:14.147Z,4.70
2018-11-26T06:58:42.344Z,4.70
2018-11-26T07:01:10.645Z,4.80
2018-11-26T07:03:38.775Z,4.70
2018-11-26T07:06:07.411Z,4.70
2018-11-26T07:08:35.547Z,4.70
2018-11-26T07:11:03.721Z,4.70
2018-11-26T07:13:32.090Z,4.70
2018-11-26T07:16:00.258Z,4.70
2018-11-26T07:18:28.555Z,4.70
2018-11-26T07:20:56.849Z,4.70
2018-11-26T07:23:25.105Z,4.70
2018-11-26T07:25:53.583Z,4.70
2018-11-26T07:28:21.724Z,4.70
2018-11-26T07:30:49.951Z,4.80
2018-11-26T07:33:18.310Z,4.70
2018-11-26T07:35:46.282Z,4.70
2018-11-26T07:38:14.441Z,4.70
2018-11-26T07:40:42.630Z,4.70
2018-11-26T07:43:12.000Z,4.70
2018-11-26T07:45:40.274Z,4.70
2018-11-26T07:48:09.586Z,4.70
2018-11-26T07:50:37.761Z,4.70
2018-11-26T07:53:07.561Z,4.70
2018-11-26T07:55:35.836Z,4.80
2018-11-26T07:58:03.995Z,4.70
2018-11-26T08:00:32.118Z,4.70
2018-11-26T08:03:00.221Z,4.60
2018-11-26T08:05:28.359Z,4.70
2018-11-26T08:07:56.477Z,4.60
2018-11-26T08:10:24.615Z,4.60
2018-11-26T08:12:54.384Z,4.50
2018-11-26T08:15:23.668Z,4.60
2018-11-26T08:17:51.822Z,4.50
2018-11-26T08:20:19.996Z,4.50
2018-11-26T08:22:48.140Z,4.50
2018-11-26T08:25:17.596Z,4.50
2018-11-26T08:27:46.626Z,4.50
2018-11-26T08:30:16.674Z,4.40
2018-11-26T08:32:45.966Z,4.40
2018-11-26T08:35:15.079Z,4.30
2018-11-26T08:37:48.584Z,4.30
2018-11-26T08:40:18.975Z,4.30
2018-11-26T08:42:52.463Z,4.30
2018-11-26T08:45:24.857Z,4.40
2018-11-26T08:48:28.355Z,4.40
2018-11-26T08:50:57.648Z,4.50
2018-11-26T08:53:25.808Z,4.40
2018-11-26T08:55:53.964Z,4.40
2018-11-26T08:58:22.085Z,4.30
2018-11-26T09:01:59.555Z,4.20
2018-11-26T09:04:31.759Z,4.30
2018-11-26T09:06:59.904Z,4.40
2018-11-26T09:09:32.781Z,4.30
2018-11-26T09:11:56.185Z,4.30
2018-11-26T09:14:24.283Z,4.30
2018-11-26T09:16:52.399Z,4.30
2018-11-26T09:19:20.570Z,4.40
2018-11-26T09:21:48.669Z,4.40
2018-11-26T09:24:16.805Z,4.30
2018-11-26T09:26:44.948Z,4.40
2018-11-26T09:29:13.263Z,4.30
2018-11-26T09:31:41.209Z,4.40
2018-11-26T09:34:09.388Z,4.40
2018-11-26T09:36:37.513Z,4.30
2018-11-26T09:39:09.969Z,4.20
2018-11-26T09:41:38.831Z,4.10
2018-11-26T09:44:07.232Z,4.20
2018-11-26T09:46:35.919Z,4.00
2018-11-26T09:49:04.054Z,3.90
2018-11-26T09:51:32.213Z,3.90
2018-11-26T09:54:00.338Z,3.90
2018-11-26T09:56:28.472Z,4.00
2018-11-26T09:58:56.633Z,4.00
2018-11-26T10:01:24.768Z,3.90
2018-11-26T10:03:52.889Z,4.00
2018-11-26T10:06:21.032Z,4.00
2018-11-26T10:08:49.141Z,4.10
2018-11-26T10:11:17.284Z,4.10
2018-11-26T10:13:45.401Z,4.00
2018-11-26T10:16:13.525Z,4.10
2018-11-26T10:18:41.643Z,4.10
2018-11-26T10:21:09.761Z,4.10
2018-11-26T10:23:37.889Z,4.10
2018-11-26T10:26:06.014Z,4.10
2018-11-26T10:28:34.142Z,4.00
2018-11-26T10:31:02.268Z,4.00
2018-11-26T10:33:30.371Z,4.00
2018-11-26T10:35:58.545Z,4.10
2018-11-26T10:38:26.647Z,4.00
2018-11-26T10:40:54.758Z,4.10
2018-11-26T10:43:22.863Z,4.10
2018-11-26T10:45:51.041Z,4.20
2018-11-26T10:48:19.153Z,4.20
2018-11-26T10:50:47.260Z,4.20
2018-11-26T10:53:15.438Z,4.20
2018-11-26T10:55:43.582Z,4.30
2018-11-26T10:58:11.735Z,4.30
2018-11-26T11:00:45.225Z,4.40
2018-11-26T11:03:13.358Z,4.40
2018-11-26T11:05:41.522Z,4.40
2018-11-26T11:08:09.619Z,4.40
2018-11-26T11:10:37.741Z,4.50
2018-11-26T11:13:06.735Z,4.60
2018-11-26T11:15:34.938Z,4.60
2018-11-26T11:18:03.076Z,4.60
2018-11-26T11:20:31.184Z,4.70
2018-11-26T11:22:59.284Z,4.60
2018-11-26T11:25:27.390Z,4.60
2018-11-26T11:27:56.433Z,4.70
2018-11-26T11:30:25.622Z,4.80
2018-11-26T11:32:53.649Z,4.80
2018-11-26T11:35:21.849Z,4.90
2018-11-26T11:37:50.692Z,4.80
2018-11-26T11:40:20.868Z,4.70
2018-11-26T11:42:49.114Z,4.70
2018-11-26T11:45:17.334Z,4.70
2018-11-26T11:47:45.499Z,4.70
2018-11-26T11:50:14.738Z,4.80
2018-11-26T11:52:42.870Z,4.80
2018-11-26T11:55:15.138Z,4.80
2018-11-26T11:57:43.250Z,4.80
2018-11-26T12:00:32.645Z,4.80
2018-11-26T12:03:01.767Z,4.70
2018-11-26T12:05:29.898Z,4.70
2018-11-26T12:07:58.003Z,4.80
2018-11-26T12:10:26.184Z,4.80
2018-11-26T12:12:54.310Z,4.80
2018-11-26T12:15:22.489Z,4.80
2018-11-26T12:17:50.630Z,4.80
2018-11-26T12:20:18.762Z,4.80
2018-11-26T12:22:46.931Z,4.90
2018-11-26T12:25:17.066Z,4.90
2018-11-26T12:27:45.170Z,4.80
2018-11-26T12:30:20.497Z,4.80
2018-11-26T12:32:48.633Z,4.80
2018-11-26T12:35:16.827Z,4.80
2018-11-26T12:37:44.959Z,4.80
2018-11-26T12:40:15.349Z,4.80
2018-11-26T12:42:43.465Z,4.80
2018-11-26T12:45:16.105Z,4.80
2018-11-26T12:47:44.299Z,4.80
2018-11-26T12:50:12.432Z,4.70
2018-11-26T12:52:40.550Z,4.80
2018-11-26T12:55:11.867Z,4.70
2018-11-26T12:57:40.854Z,4.80
2018-11-26T13:00:18.332Z,4.80
2018-11-26T13:02:48.798Z,4.80
2018-11-26T13:05:17.755Z,4.80
2018-11-26T13:07:45.858Z,4.80
2018-11-26T13:10:16.817Z,4.80
2018-11-26T13:12:45.465Z,4.90
2018-11-26T13:15:15.034Z,4.80
2018-11-26T13:17:43.189Z,4.80
2018-11-26T13:20:16.422Z,4.80
2018-11-26T13:22:44.690Z,4.80
2018-11-26T13:25:14.810Z,4.70
2018-11-26T13:27:45.354Z,4.70
2018-11-26T13:30:15.835Z,4.80
2018-11-26T13:32:45.287Z,4.80
2018-11-26T13:35:14.299Z,4.80
2018-11-26T13:37:42.467Z,4.80
2018-11-26T13:40:11.792Z,4.70
2018-11-26T13:42:40.070Z,4.70
2018-11-26T13:45:09.964Z,4.60
2018-11-26T13:47:38.298Z,4.50
2018-11-26T13:50:09.898Z,4.50
2018-11-26T13:52:38.030Z,4.40
2018-11-26T13:55:08.523Z,4.40
2018-11-26T13:57:36.661Z,4.40
2018-11-26T14:00:06.398Z,4.40
2018-11-26T14:02:34.567Z,4.30
2018-11-26T14:05:02.666Z,4.30
2018-11-26T14:07:30.781Z,4.20
2018-11-26T14:09:58.993Z,4.20
2018-11-26T14:12:27.156Z,4.20
2018-11-26T14:14:55.312Z,4.10
2018-11-26T14:17:23.457Z,4.00
2018-11-26T14:19:51.621Z,3.90
2018-11-26T14:22:19.787Z,3.80
2018-11-26T14:24:47.962Z,3.70
2018-11-26T14:27:16.124Z,3.70
2018-11-26T14:29:44.279Z,3.70
2018-11-26T14:32:12.492Z,3.70
2018-11-26T14:34:40.614Z,3.70
2018-11-26T14:37:08.864Z,3.80
2018-11-26T14:39:36.986Z,3.70
2018-11-26T14:42:05.347Z,3.70
2018-11-26T14:44:33.534Z,3.60
2018-11-26T14:47:01.725Z,3.60
2018-11-26T14:49:29.862Z,3.50
2018-11-26T14:51:58.038Z,3.60
2018-11-26T14:54:26.278Z,3.70
2018-11-26T14:56:54.728Z,3.60
2018-11-26T14:59:22.939Z,3.60
2018-11-26T15:01:51.057Z,3.60
2018-11-26T15:04:19.236Z,3.70
2018-11-26T15:06:47.459Z,3.70
2018-11-26T15:09:15.691Z,3.60
2018-11-26T15:11:43.788Z,3.60
2018-11-26T15:14:11.893Z,3.50
2018-11-26T15:16:40.034Z,3.60
2018-11-26T15:19:08.227Z,3.60
2018-11-26T15:21:36.514Z,3.60
2018-11-26T15:24:04.676Z,3.50
2018-11-26T15:26:32.920Z,3.50
2018-11-26T15:29:01.089Z,3.60
2018-11-26T15:31:34.709Z,3.60
2018-11-26T15:34:02.894Z,3.60
2018-11-26T15:36:31.079Z,3.60
2018-11-26T15:38:59.210Z,3.60
2018-11-26T15:41:27.360Z,3.70
2018-11-26T15:43:55.519Z,3.70
2018-11-26T15:46:23.690Z,3.70
2018-11-26T15:48:51.825Z,3.70
2018-11-26T15:51:19.947Z,3.70
2018-11-26T15:53:48.105Z,3.70
2018-11-26T15:56:16.555Z,3.70
2018-11-26T15:58:44.989Z,3.70
2018-11-26T16:01:13.131Z,3.70
2018-11-26T16:03:41.328Z,3.70
2018-11-26T16:06:09.525Z,3.70
2018-11-26T16:08:37.757Z,3.70
2018-11-26T16:11:06.067Z,3.60
2018-11-26T16:13:34.256Z,3.70
2018-11-26T16:16:02.434Z,3.70
2018-11-26T16:18:30.609Z,3.60
2018-11-26T16:20:58.774Z,3.60
2018-11-26T16:23:26.928Z,3.60
2018-11-26T16:25:55.168Z,3.70
2018-11-26T16:28:23.676Z,3.70
2018-11-26T16:30:52.216Z,3.70
2018-11-26T16:33:20.392Z,3.70
2018-11-26T16:35:48.514Z,3.80
2018-11-26T16:38:16.719Z,3.80
2018-11-26T16:40:44.946Z,3.70
2018-11-26T16:43:13.125Z,3.70
2018-11-26T16:45:41.371Z,3.70
2018-11-26T16:48:09.774Z,3.70
2018-11-26T16:50:38.036Z,3.70
2018-11-26T16:53:06.982Z,3.80
2018-11-26T16:55:40.001Z,3.80
2018-11-26T16:58:08.143Z,3.70
2018-11-26T17:00:38.026Z,3.80
2018-11-26T17:03:06.256Z,3.80
2018-11-26T17:05:39.033Z,3.70
2018-11-26T17:08:10.557Z,3.70
2018-11-26T17:10:38.957Z,3.70
2018-11-26T17:13:07.422Z,3.70
2018-11-26T17:15:35.628Z,3.70
2018-11-26T17:18:03.847Z,3.80
2018-11-26T17:20:31.979Z,3.70
2018-11-26T17:23:00.084Z,3.60
2018-11-26T17:25:28.250Z,3.60
2018-11-26T17:27:56.364Z,3.60
2018-11-26T17:30:25.963Z,3.60
2018-11-26T17:32:56.608Z,3.50
2018-11-26T17:35:24.846Z,3.50
2018-11-26T17:37:52.974Z,3.50
2018-11-26T17:40:22.001Z,3.50
2018-11-26T17:42:50.584Z,3.50
2018-11-26T17:45:19.284Z,3.60
2018-11-26T17:47:52.658Z,3.50
2018-11-26T17:50:25.479Z,3.60
2018-11-26T17:52:53.690Z,3.60
2018-11-26T17:55:21.839Z,3.60
2018-11-26T17:57:50.171Z,3.60
2018-11-26T18:00:22.609Z,3.60
2018-11-26T18:02:50.750Z,3.60
2018-11-26T18:05:23.055Z,3.60
2018-11-26T18:07:56.122Z,3.60
2018-11-26T18:10:24.338Z,3.60
2018-11-26T18:12:52.450Z,3.70
2018-11-26T18:15:20.587Z,3.60
2018-11-26T18:17:48.763Z,3.60
2018-11-26T18:20:18.859Z,3.60
2018-11-26T18:22:48.388Z,3.60
2018-11-26T18:25:17.207Z,3.60
2018-11-26T18:27:54.017Z,3.50
2018-11-26T18:30:31.773Z,3.50
2018-11-26T18:32:59.942Z,3.50
2018-11-26T18:35:28.099Z,3.50
2018-11-26T18:37:56.343Z,3.50
2018-11-26T18:40:24.521Z,3.30
2018-11-26T18:42:52.788Z,3.30
2018-11-26T18:45:21.121Z,3.30
2018-11-26T18:47:49.302Z,3.30
2018-11-26T18:50:18.600Z,3.30
2018-11-26T18:52:48.006Z,3.40
2018-11-26T18:55:16.638Z,3.40
2018-11-26T18:57:44.860Z,3.40
2018-11-26T19:00:20.330Z,3.30
2018-11-26T19:02:48.582Z,3.30
2018-11-26T19:05:17.677Z,3.30
2018-11-26T19:07:45.993Z,3.30
2018-11-26T19:10:16.467Z,3.30
2018-11-26T19:12:46.206Z,3.40
2018-11-26T19:15:32.464Z,3.40
2018-11-26T19:18:07.238Z,3.40
2018-11-26T19:20:35.406Z,3.30
2018-11-26T19:23:03.733Z,3.30
2018-11-26T19:25:31.858Z,3.20
2018-11-26T19:28:00.015Z,3.30
2018-11-26T19:30:28.461Z,3.30
2018-11-26T19:32:56.658Z,3.30
2018-11-26T19:35:24.823Z,3.30
2018-11-26T19:37:52.979Z,3.30
2018-11-26T19:40:21.164Z,3.20
2018-11-26T19:42:49.294Z,3.10
2018-11-26T19:45:19.590Z,3.10
2018-11-26T19:47:47.844Z,3.20
2018-11-26T19:50:18.291Z,3.20
2018-11-26T19:52:47.817Z,3.20
2018-11-26T19:55:18.946Z,3.20
2018-11-26T19:57:47.129Z,3.20
2018-11-26T20:00:18.591Z,3.20
2018-11-26T20:02:49.336Z,3.20
2018-11-26T20:05:46.828Z,3.10
2018-11-26T20:08:15.102Z,3.10
2018-11-26T20:10:43.310Z,3.10
2018-11-26T20:13:11.524Z,3.00
2018-11-26T20:15:39.738Z,3.10
2018-11-26T20:18:07.923Z,3.00
2018-11-26T20:20:36.787Z,3.00
2018-11-26T20:23:05.076Z,3.00
2018-11-26T20:25:33.267Z,3.00
2018-11-26T20:28:01.406Z,3.00
2018-11-26T20:30:29.613Z,3.00
2018-11-26T20:32:57.843Z,2.90
2018-11-26T20:35:26.067Z,2.90
2018-11-26T20:37:54.315Z,2.80
2018-11-26T20:40:22.523Z,2.80
2018-11-26T20:42:54.095Z,2.80
2018-11-26T20:45:22.215Z,2.70
2018-11-26T20:47:51.319Z,2.80
2018-11-26T20:50:26.028Z,2.80
2018-11-26T20:52:54.228Z,2.90
2018-11-26T20:55:23.643Z,2.80
2018-11-26T20:57:52.867Z,2.90
2018-11-26T21:00:22.303Z,2.90
2018-11-26T21:02:51.703Z,2.80
2018-11-26T21:05:20.035Z,2.70
2018-11-26T21:07:48.150Z,2.70
2018-11-26T21:10:16.568Z,2.70
2018-11-26T21:12:44.711Z,2.80
2018-11-26T21:15:13.879Z,2.80
2018-11-26T21:17:43.173Z,2.60
2018-11-26T21:20:14.321Z,2.60
2018-11-26T21:22:42.474Z,2.60
2018-11-26T21:25:13.439Z,2.60
2018-11-26T21:27:41.615Z,2.60
2018-11-26T21:30:14.572Z,2.60
2018-11-26T21:32:42.716Z,2.60
2018-11-26T21:35:14.563Z,2.60
2018-11-26T21:37:43.854Z,2.70
2018-11-26T21:40:14.036Z,2.70
2018-11-26T21:42:42.311Z,2.70
2018-11-26T21:45:12.676Z,2.70
2018-11-26T21:47:40.833Z,2.70
2018-11-26T21:50:12.194Z,2.70
2018-11-26T21:55:16.165Z,2.60
2018-11-26T21:57:44.367Z,2.60
2018-11-26T22:00:20.840Z,2.60
2018-11-26T22:02:49.166Z,2.60
2018-11-26T22:05:17.311Z,2.60
2018-11-26T22:07:45.443Z,2.60
2018-11-26T22:10:15.356Z,2.70
2018-11-26T22:12:44.904Z,2.60
2018-11-26T22:15:13.539Z,2.40
2018-11-26T22:17:42.823Z,2.30
2018-11-26T22:20:12.502Z,2.40
2018-11-26T22:22:40.683Z,2.30
2018-11-26T22:25:10.690Z,2.40
2018-11-26T22:27:38.899Z,2.40
2018-11-26T22:30:13.039Z,2.50
2018-11-26T22:32:41.144Z,2.40
2018-11-26T22:35:09.700Z,2.30
2018-11-26T22:37:37.837Z,2.40
2018-11-26T22:40:09.419Z,2.40
2018-11-26T22:42:37.712Z,2.30
2018-11-26T22:45:10.287Z,2.30
2018-11-26T22:47:38.438Z,2.40
2018-11-26T22:50:11.308Z,2.30
2018-11-26T22:52:39.872Z,2.30
2018-11-26T22:55:09.265Z,2.20
2018-11-26T22:57:37.416Z,2.20
2018-11-26T23:00:11.089Z,2.20
2018-11-26T23:02:39.297Z,2.10
2018-11-26T23:05:07.972Z,2.10
2018-11-26T23:07:36.105Z,2.20
2018-11-26T23:10:07.415Z,2.20
2018-11-26T23:12:35.554Z,2.10
2018-11-26T23:15:03.706Z,2.10
2018-11-26T23:17:31.887Z,2.00
2018-11-26T23:20:00.053Z,2.00
2018-11-26T23:22:28.223Z,2.00
2018-11-26T23:24:56.438Z,2.10
2018-11-26T23:27:24.557Z,2.20
2018-11-26T23:29:52.698Z,2.20
2018-11-26T23:32:20.840Z,2.20
2018-11-26T23:34:48.973Z,2.20
2018-11-26T23:37:17.140Z,2.10
2018-11-26T23:39:45.278Z,2.10
2018-11-26T23:42:13.563Z,2.10
2018-11-26T23:44:41.683Z,2.20
2018-11-26T23:47:09.822Z,2.10
2018-11-26T23:49:38.010Z,2.20
2018-11-26T23:52:06.219Z,2.20
2018-11-26T23:54:34.359Z,2.20
2018-11-26T23:57:02.547Z,2.20
2018-11-26T23:59:30.707Z,2.20
